sensor_id;sensor_type;location;lat;lon;timestamp;temperature;humidity
18047;DHT22;9148;51.454;13.862;2022-10-23T00:01:17;11.10;99.90
18047;DHT22;9148;51.454;13.862;2022-10-23T00:04:03;11.00;99.90
18047;DHT22;9148;51.454;13.862;2022-10-23T00:06:31;11.00;99.90
18047;DHT22;9148;51.454;13.862;2022-10-23T00:08:57;10.90;99.90
18047;DHT22;9148;51.454;13.862;2022-10-23T00:11:26;10.80;99.90
18047;DHT22;9148;51.454;13.862;2022-10-23T00:13:55;10.70;99.90
18047;DHT22;9148;51.454;13.862;2022-10-23T00:16:22;10.60;99.90
18047;DHT22;9148;51.454;13.862;2022-10-23T00:18:48;10.60;99.90
18047;DHT22;9148;51.454;13.862;2022-10-23T00:21:15;10.60;99.90
18047;DHT22;9148;51.454;13.862;2022-10-23T00:23:42;10.60;99.90
18047;DHT22;9148;51.454;13.862;2022-10-23T00:26:08;10.60;99.90
18047;DHT22;9148;51.454;13.862;2022-10-23T00:28:45;10.50;99.90
18047;DHT22;9148;51.454;13.862;2022-10-23T00:31:13;10.60;99.90
18047;DHT22;9148;51.454;13.862;2022-10-23T00:33:39;10.50;99.90
18047;DHT22;9148;51.454;13.862;2022-10-23T00:36:07;10.60;99.90
18047;DHT22;9148;51.454;13.862;2022-10-23T00:38:35;10.60;99.90
18047;DHT22;9148;51.454;13.862;2022-10-23T00:41:01;10.60;99.90
18047;DHT22;9148;51.454;13.862;2022-10-23T00:43:28;10.60;99.90
18047;DHT22;9148;51.454;13.862;2022-10-23T00:45:55;10.60;99.90
18047;DHT22;9148;51.454;13.862;2022-10-23T00:48:22;10.60;99.90
18047;DHT22;9148;51.454;13.862;2022-10-23T00:50:48;10.60;99.90
18047;DHT22;9148;51.454;13.862;2022-10-23T00:53:16;10.60;99.90
18047;DHT22;9148;51.454;13.862;2022-10-23T00:55:44;10.50;99.90
18047;DHT22;9148;51.454;13.862;2022-10-23T00:58:12;10.80;99.90
18047;DHT22;9148;51.454;13.862;2022-10-23T01:00:48;10.40;99.90
18047;DHT22;9148;51.454;13.862;2022-10-23T01:03:17;10.40;99.90
18047;DHT22;9148;51.454;13.862;2022-10-23T01:05:49;10.30;99.90
18047;DHT22;9148;51.454;13.862;2022-10-23T01:08:51;10.30;99.90
18047;DHT22;9148;51.454;13.862;2022-10-23T01:11:25;10.20;99.90
18047;DHT22;9148;51.454;13.862;2022-10-23T01:14:10;10.20;99.90
18047;DHT22;9148;51.454;13.862;2022-10-23T01:16:45;10.10;99.90
18047;DHT22;9148;51.454;13.862;2022-10-23T01:19:43;10.10;99.90
18047;DHT22;9148;51.454;13.862;2022-10-23T01:25:00;10.00;99.90
18047;DHT22;9148;51.454;13.862;2022-10-23T01:27:55;9.90;99.90
18047;DHT22;9148;51.454;13.862;2022-10-23T01:30:25;9.90;99.90
18047;DHT22;9148;51.454;13.862;2022-10-23T01:32:59;9.90;99.90
18047;DHT22;9148;51.454;13.862;2022-10-23T01:35:34;9.80;99.90
18047;DHT22;9148;51.454;13.862;2022-10-23T01:38:15;9.80;99.90
18047;DHT22;9148;51.454;13.862;2022-10-23T01:40:45;9.80;99.90
18047;DHT22;9148;51.454;13.862;2022-10-23T01:43:17;9.80;99.90
18047;DHT22;9148;51.454;13.862;2022-10-23T01:45:49;9.80;99.90
18047;DHT22;9148;51.454;13.862;2022-10-23T01:48:21;9.70;99.90
18047;DHT22;9148;51.454;13.862;2022-10-23T01:50:50;9.70;99.90
18047;DHT22;9148;51.454;13.862;2022-10-23T01:53:18;9.70;99.90
18047;DHT22;9148;51.454;13.862;2022-10-23T01:55:45;9.70;99.90
18047;DHT22;9148;51.454;13.862;2022-10-23T01:58:12;9.60;99.90
18047;DHT22;9148;51.454;13.862;2022-10-23T02:00:41;9.60;99.90
18047;DHT22;9148;51.454;13.862;2022-10-23T02:03:09;9.60;99.90
18047;DHT22;9148;51.454;13.862;2022-10-23T02:05:36;9.50;99.90
18047;DHT22;9148;51.454;13.862;2022-10-23T02:08:04;9.50;99.90
18047;DHT22;9148;51.454;13.862;2022-10-23T02:10:37;9.50;99.90
18047;DHT22;9148;51.454;13.862;2022-10-23T02:16:40;9.50;99.90
18047;DHT22;9148;51.454;13.862;2022-10-23T02:19:14;9.40;99.90
18047;DHT22;9148;51.454;13.862;2022-10-23T02:24:35;9.40;99.90
18047;DHT22;9148;51.454;13.862;2022-10-23T02:27:11;9.30;99.90
18047;DHT22;9148;51.454;13.862;2022-10-23T02:29:44;9.30;99.90
18047;DHT22;9148;51.454;13.862;2022-10-23T02:32:21;9.30;99.90
18047;DHT22;9148;51.454;13.862;2022-10-23T02:34:48;9.20;99.90
18047;DHT22;9148;51.454;13.862;2022-10-23T02:37:14;9.30;99.90
18047;DHT22;9148;51.454;13.862;2022-10-23T02:39:40;9.30;99.90
18047;DHT22;9148;51.454;13.862;2022-10-23T02:45:15;9.20;99.90
18047;DHT22;9148;51.454;13.862;2022-10-23T02:48:04;9.20;99.90
18047;DHT22;9148;51.454;13.862;2022-10-23T02:51:05;9.20;99.90
18047;DHT22;9148;51.454;13.862;2022-10-23T02:57:01;9.20;99.90
18047;DHT22;9148;51.454;13.862;2022-10-23T02:59:50;9.10;99.90
18047;DHT22;9148;51.454;13.862;2022-10-23T03:02:44;9.10;99.90
18047;DHT22;9148;51.454;13.862;2022-10-23T03:05:16;9.20;99.90
18047;DHT22;9148;51.454;13.862;2022-10-23T03:07:45;9.10;99.90
18047;DHT22;9148;51.454;13.862;2022-10-23T03:10:11;9.10;99.90
18047;DHT22;9148;51.454;13.862;2022-10-23T03:12:38;9.10;99.90
18047;DHT22;9148;51.454;13.862;2022-10-23T03:15:05;9.10;99.90
18047;DHT22;9148;51.454;13.862;2022-10-23T03:17:31;9.10;99.90
18047;DHT22;9148;51.454;13.862;2022-10-23T03:19:57;9.10;99.90
18047;DHT22;9148;51.454;13.862;2022-10-23T03:22:23;9.10;99.90
18047;DHT22;9148;51.454;13.862;2022-10-23T03:24:48;9.10;99.90
18047;DHT22;9148;51.454;13.862;2022-10-23T03:27:14;9.10;99.90
18047;DHT22;9148;51.454;13.862;2022-10-23T03:29:40;9.10;99.90
18047;DHT22;9148;51.454;13.862;2022-10-23T03:32:07;9.10;99.90
18047;DHT22;9148;51.454;13.862;2022-10-23T03:34:32;9.10;99.90
18047;DHT22;9148;51.454;13.862;2022-10-23T03:36:59;9.10;99.90
18047;DHT22;9148;51.454;13.862;2022-10-23T03:39:25;9.10;99.90
18047;DHT22;9148;51.454;13.862;2022-10-23T03:41:51;9.10;99.90
18047;DHT22;9148;51.454;13.862;2022-10-23T03:44:17;9.00;99.90
18047;DHT22;9148;51.454;13.862;2022-10-23T03:46:43;9.00;99.90
18047;DHT22;9148;51.454;13.862;2022-10-23T03:49:08;9.00;99.90
18047;DHT22;9148;51.454;13.862;2022-10-23T03:51:34;9.00;99.90
18047;DHT22;9148;51.454;13.862;2022-10-23T03:54:00;8.90;99.90
18047;DHT22;9148;51.454;13.862;2022-10-23T03:56:25;8.90;99.90
18047;DHT22;9148;51.454;13.862;2022-10-23T03:58:51;8.90;99.90
18047;DHT22;9148;51.454;13.862;2022-10-23T04:01:17;8.90;99.90
18047;DHT22;9148;51.454;13.862;2022-10-23T04:03:42;8.90;99.90
18047;DHT22;9148;51.454;13.862;2022-10-23T04:06:08;8.80;99.90
18047;DHT22;9148;51.454;13.862;2022-10-23T04:08:34;8.80;99.90
18047;DHT22;9148;51.454;13.862;2022-10-23T04:11:00;8.80;99.90
18047;DHT22;9148;51.454;13.862;2022-10-23T04:13:25;8.80;99.90
18047;DHT22;9148;51.454;13.862;2022-10-23T04:15:52;8.80;99.90
18047;DHT22;9148;51.454;13.862;2022-10-23T04:18:18;8.80;99.90
18047;DHT22;9148;51.454;13.862;2022-10-23T04:20:46;8.80;99.90
18047;DHT22;9148;51.454;13.862;2022-10-23T04:23:13;8.90;99.90
18047;DHT22;9148;51.454;13.862;2022-10-23T04:25:39;8.80;99.90
18047;DHT22;9148;51.454;13.862;2022-10-23T04:28:05;8.80;99.90
18047;DHT22;9148;51.454;13.862;2022-10-23T04:30:31;8.90;99.90
18047;DHT22;9148;51.454;13.862;2022-10-23T04:32:56;8.90;99.90
18047;DHT22;9148;51.454;13.862;2022-10-23T04:35:22;8.90;99.90
18047;DHT22;9148;51.454;13.862;2022-10-23T04:37:48;8.90;99.90
18047;DHT22;9148;51.454;13.862;2022-10-23T04:40:13;8.90;99.90
18047;DHT22;9148;51.454;13.862;2022-10-23T04:42:39;8.90;99.90
18047;DHT22;9148;51.454;13.862;2022-10-23T04:45:05;9.00;99.90
18047;DHT22;9148;51.454;13.862;2022-10-23T04:47:31;9.00;99.90
18047;DHT22;9148;51.454;13.862;2022-10-23T04:49:57;9.00;99.90
18047;DHT22;9148;51.454;13.862;2022-10-23T04:52:22;9.00;99.90
18047;DHT22;9148;51.454;13.862;2022-10-23T04:54:48;9.00;99.90
18047;DHT22;9148;51.454;13.862;2022-10-23T04:57:14;9.00;99.90
18047;DHT22;9148;51.454;13.862;2022-10-23T04:59:39;9.00;99.90
18047;DHT22;9148;51.454;13.862;2022-10-23T05:02:05;9.00;99.90
18047;DHT22;9148;51.454;13.862;2022-10-23T05:04:31;9.00;99.90
18047;DHT22;9148;51.454;13.862;2022-10-23T05:06:57;8.90;99.90
18047;DHT22;9148;51.454;13.862;2022-10-23T05:09:22;8.90;99.90
18047;DHT22;9148;51.454;13.862;2022-10-23T05:11:48;8.90;99.90
18047;DHT22;9148;51.454;13.862;2022-10-23T05:14:14;8.90;99.90
18047;DHT22;9148;51.454;13.862;2022-10-23T05:16:53;8.90;99.90
18047;DHT22;9148;51.454;13.862;2022-10-23T05:19:24;8.90;99.90
18047;DHT22;9148;51.454;13.862;2022-10-23T05:21:52;8.90;99.90
18047;DHT22;9148;51.454;13.862;2022-10-23T05:24:24;8.90;99.90
18047;DHT22;9148;51.454;13.862;2022-10-23T05:26:50;8.90;99.90
18047;DHT22;9148;51.454;13.862;2022-10-23T05:29:20;8.90;99.90
18047;DHT22;9148;51.454;13.862;2022-10-23T05:31:48;8.90;99.90
18047;DHT22;9148;51.454;13.862;2022-10-23T05:34:18;8.90;99.90
18047;DHT22;9148;51.454;13.862;2022-10-23T05:36:45;8.90;99.90
18047;DHT22;9148;51.454;13.862;2022-10-23T05:39:11;8.90;99.90
18047;DHT22;9148;51.454;13.862;2022-10-23T05:41:37;8.80;99.90
18047;DHT22;9148;51.454;13.862;2022-10-23T05:44:03;8.80;99.90
18047;DHT22;9148;51.454;13.862;2022-10-23T05:46:28;8.80;99.90
18047;DHT22;9148;51.454;13.862;2022-10-23T05:48:54;8.80;99.90
18047;DHT22;9148;51.454;13.862;2022-10-23T05:51:20;8.70;99.90
18047;DHT22;9148;51.454;13.862;2022-10-23T05:53:50;8.70;99.90
18047;DHT22;9148;51.454;13.862;2022-10-23T05:56:16;8.70;99.90
18047;DHT22;9148;51.454;13.862;2022-10-23T05:58:43;8.60;99.90
18047;DHT22;9148;51.454;13.862;2022-10-23T06:01:11;8.60;99.90
18047;DHT22;9148;51.454;13.862;2022-10-23T06:03:38;8.60;99.90
18047;DHT22;9148;51.454;13.862;2022-10-23T06:06:06;8.60;99.90
18047;DHT22;9148;51.454;13.862;2022-10-23T06:08:32;8.60;99.90
18047;DHT22;9148;51.454;13.862;2022-10-23T06:11:10;8.70;99.90
18047;DHT22;9148;51.454;13.862;2022-10-23T06:13:37;8.70;99.90
18047;DHT22;9148;51.454;13.862;2022-10-23T06:16:11;8.60;99.90
18047;DHT22;9148;51.454;13.862;2022-10-23T06:18:38;8.70;99.90
18047;DHT22;9148;51.454;13.862;2022-10-23T06:21:04;8.70;99.90
18047;DHT22;9148;51.454;13.862;2022-10-23T06:23:33;8.70;99.90
18047;DHT22;9148;51.454;13.862;2022-10-23T06:26:00;9.30;99.90
18047;DHT22;9148;51.454;13.862;2022-10-23T06:28:26;8.80;99.90
18047;DHT22;9148;51.454;13.862;2022-10-23T06:30:52;8.90;99.90
18047;DHT22;9148;51.454;13.862;2022-10-23T06:33:18;9.00;99.90
18047;DHT22;9148;51.454;13.862;2022-10-23T06:35:44;9.00;99.90
18047;DHT22;9148;51.454;13.862;2022-10-23T06:38:09;9.00;99.90
18047;DHT22;9148;51.454;13.862;2022-10-23T06:40:36;9.10;99.90
18047;DHT22;9148;51.454;13.862;2022-10-23T06:43:03;9.20;99.90
18047;DHT22;9148;51.454;13.862;2022-10-23T06:45:30;9.30;99.90
18047;DHT22;9148;51.454;13.862;2022-10-23T06:47:58;9.40;99.90
18047;DHT22;9148;51.454;13.862;2022-10-23T06:50:24;9.70;99.90
18047;DHT22;9148;51.454;13.862;2022-10-23T06:52:50;9.80;99.90
18047;DHT22;9148;51.454;13.862;2022-10-23T06:55:17;10.00;99.90
18047;DHT22;9148;51.454;13.862;2022-10-23T06:57:43;10.30;99.90
18047;DHT22;9148;51.454;13.862;2022-10-23T07:00:09;10.00;99.90
18047;DHT22;9148;51.454;13.862;2022-10-23T07:02:36;10.50;99.90
18047;DHT22;9148;51.454;13.862;2022-10-23T07:05:01;10.60;99.90
18047;DHT22;9148;51.454;13.862;2022-10-23T07:07:31;10.80;99.90
18047;DHT22;9148;51.454;13.862;2022-10-23T07:09:56;11.00;99.90
18047;DHT22;9148;51.454;13.862;2022-10-23T07:12:22;11.30;99.90
18047;DHT22;9148;51.454;13.862;2022-10-23T07:14:48;11.60;99.90
18047;DHT22;9148;51.454;13.862;2022-10-23T07:17:13;11.80;99.90
18047;DHT22;9148;51.454;13.862;2022-10-23T07:19:39;12.00;99.90
18047;DHT22;9148;51.454;13.862;2022-10-23T07:22:05;12.20;99.90
18047;DHT22;9148;51.454;13.862;2022-10-23T07:24:31;12.40;99.90
18047;DHT22;9148;51.454;13.862;2022-10-23T07:27:01;12.70;99.90
18047;DHT22;9148;51.454;13.862;2022-10-23T07:29:28;12.90;99.90
18047;DHT22;9148;51.454;13.862;2022-10-23T07:31:53;13.10;99.90
18047;DHT22;9148;51.454;13.862;2022-10-23T07:34:19;13.30;99.90
18047;DHT22;9148;51.454;13.862;2022-10-23T07:36:45;13.50;99.90
18047;DHT22;9148;51.454;13.862;2022-10-23T07:39:11;13.60;99.90
18047;DHT22;9148;51.454;13.862;2022-10-23T07:41:36;13.80;99.90
18047;DHT22;9148;51.454;13.862;2022-10-23T07:44:02;14.10;99.90
18047;DHT22;9148;51.454;13.862;2022-10-23T07:46:28;14.30;99.90
18047;DHT22;9148;51.454;13.862;2022-10-23T07:48:54;14.60;99.90
18047;DHT22;9148;51.454;13.862;2022-10-23T07:51:19;14.90;99.90
18047;DHT22;9148;51.454;13.862;2022-10-23T07:53:46;15.20;99.90
18047;DHT22;9148;51.454;13.862;2022-10-23T07:56:25;15.50;99.90
18047;DHT22;9148;51.454;13.862;2022-10-23T07:58:54;15.80;99.90
18047;DHT22;9148;51.454;13.862;2022-10-23T08:01:31;16.00;99.90
18047;DHT22;9148;51.454;13.862;2022-10-23T08:03:59;16.30;99.90
18047;DHT22;9148;51.454;13.862;2022-10-23T08:06:25;16.50;99.90
18047;DHT22;9148;51.454;13.862;2022-10-23T08:08:51;16.80;99.90
18047;DHT22;9148;51.454;13.862;2022-10-23T08:11:20;17.00;99.90
18047;DHT22;9148;51.454;13.862;2022-10-23T08:13:54;17.30;99.90
18047;DHT22;9148;51.454;13.862;2022-10-23T08:16:21;17.40;99.90
18047;DHT22;9148;51.454;13.862;2022-10-23T08:18:48;17.60;99.90
18047;DHT22;9148;51.454;13.862;2022-10-23T08:21:14;17.70;99.90
18047;DHT22;9148;51.454;13.862;2022-10-23T08:23:41;17.70;99.90
18047;DHT22;9148;51.454;13.862;2022-10-23T08:26:07;17.80;99.90
18047;DHT22;9148;51.454;13.862;2022-10-23T08:28:33;17.90;99.90
18047;DHT22;9148;51.454;13.862;2022-10-23T08:31:09;18.00;99.90
18047;DHT22;9148;51.454;13.862;2022-10-23T08:33:37;18.10;99.90
18047;DHT22;9148;51.454;13.862;2022-10-23T08:36:03;18.30;99.90
18047;DHT22;9148;51.454;13.862;2022-10-23T08:38:29;18.50;99.90
18047;DHT22;9148;51.454;13.862;2022-10-23T08:40:55;18.70;99.90
18047;DHT22;9148;51.454;13.862;2022-10-23T08:43:34;18.80;99.90
18047;DHT22;9148;51.454;13.862;2022-10-23T08:46:11;19.00;99.90
18047;DHT22;9148;51.454;13.862;2022-10-23T08:48:48;19.20;99.90
18047;DHT22;9148;51.454;13.862;2022-10-23T08:51:34;19.30;99.90
18047;DHT22;9148;51.454;13.862;2022-10-23T08:54:13;19.40;99.90
18047;DHT22;9148;51.454;13.862;2022-10-23T08:56:42;19.50;99.90
18047;DHT22;9148;51.454;13.862;2022-10-23T08:59:34;19.80;99.90
18047;DHT22;9148;51.454;13.862;2022-10-23T09:04:57;20.00;99.90
18047;DHT22;9148;51.454;13.862;2022-10-23T09:13:19;20.40;99.90
18047;DHT22;9148;51.454;13.862;2022-10-23T09:16:15;20.60;99.90
18047;DHT22;9148;51.454;13.862;2022-10-23T09:18:54;20.80;99.90
18047;DHT22;9148;51.454;13.862;2022-10-23T09:21:28;21.10;99.90
18047;DHT22;9148;51.454;13.862;2022-10-23T09:23:54;21.30;99.90
18047;DHT22;9148;51.454;13.862;2022-10-23T09:26:20;21.40;99.90
18047;DHT22;9148;51.454;13.862;2022-10-23T09:29:00;21.50;99.90
18047;DHT22;9148;51.454;13.862;2022-10-23T09:31:32;21.50;99.40
18047;DHT22;9148;51.454;13.862;2022-10-23T09:33:59;21.30;99.40
18047;DHT22;9148;51.454;13.862;2022-10-23T09:36:27;21.20;99.90
18047;DHT22;9148;51.454;13.862;2022-10-23T09:38:58;21.20;99.90
18047;DHT22;9148;51.454;13.862;2022-10-23T09:41:33;21.20;99.90
18047;DHT22;9148;51.454;13.862;2022-10-23T09:46:43;21.20;98.80
18047;DHT22;9148;51.454;13.862;2022-10-23T09:49:23;21.10;98.20
18047;DHT22;9148;51.454;13.862;2022-10-23T09:52:03;20.90;98.60
18047;DHT22;9148;51.454;13.862;2022-10-23T09:54:43;20.80;98.70
18047;DHT22;9148;51.454;13.862;2022-10-23T09:57:39;20.70;99.20
18047;DHT22;9148;51.454;13.862;2022-10-23T10:03:18;20.90;98.30
18047;DHT22;9148;51.454;13.862;2022-10-23T10:06:02;20.80;98.20
18047;DHT22;9148;51.454;13.862;2022-10-23T10:08:35;20.90;98.20
18047;DHT22;9148;51.454;13.862;2022-10-23T10:11:15;21.00;98.10
18047;DHT22;9148;51.454;13.862;2022-10-23T10:14:00;20.90;98.00
18047;DHT22;9148;51.454;13.862;2022-10-23T10:16:52;21.20;96.80
18047;DHT22;9148;51.454;13.862;2022-10-23T10:22:28;21.20;96.40
18047;DHT22;9148;51.454;13.862;2022-10-23T10:25:28;21.50;96.20
18047;DHT22;9148;51.454;13.862;2022-10-23T10:33:57;22.60;93.10
18047;DHT22;9148;51.454;13.862;2022-10-23T10:36:39;22.50;92.50
18047;DHT22;9148;51.454;13.862;2022-10-23T10:39:26;22.40;92.50
18047;DHT22;9148;51.454;13.862;2022-10-23T10:45:28;22.00;92.00
18047;DHT22;9148;51.454;13.862;2022-10-23T10:48:22;21.90;92.10
18047;DHT22;9148;51.454;13.862;2022-10-23T10:51:32;21.80;91.50
18047;DHT22;9148;51.454;13.862;2022-10-23T10:57:02;21.70;91.50
18047;DHT22;9148;51.454;13.862;2022-10-23T10:59:32;21.60;91.30
18047;DHT22;9148;51.454;13.862;2022-10-23T11:02:46;21.70;91.70
18047;DHT22;9148;51.454;13.862;2022-10-23T11:05:42;21.90;91.20
18047;DHT22;9148;51.454;13.862;2022-10-23T11:08:13;22.30;91.00
18047;DHT22;9148;51.454;13.862;2022-10-23T11:10:49;22.40;90.00
18047;DHT22;9148;51.454;13.862;2022-10-23T11:13:35;22.60;88.50
18047;DHT22;9148;51.454;13.862;2022-10-23T11:16:23;22.70;85.00
18047;DHT22;9148;51.454;13.862;2022-10-23T11:19:26;22.70;83.00
18047;DHT22;9148;51.454;13.862;2022-10-23T11:22:02;22.70;84.10
18047;DHT22;9148;51.454;13.862;2022-10-23T11:36:53;23.70;79.70
18047;DHT22;9148;51.454;13.862;2022-10-23T11:39:25;23.90;79.80
18047;DHT22;9148;51.454;13.862;2022-10-23T11:44:45;24.30;79.90
18047;DHT22;9148;51.454;13.862;2022-10-23T11:55:30;24.90;72.50
18047;DHT22;9148;51.454;13.862;2022-10-23T12:01:16;24.70;72.70
18047;DHT22;9148;51.454;13.862;2022-10-23T12:04:05;24.80;72.70
18047;DHT22;9148;51.454;13.862;2022-10-23T12:06:48;24.90;70.30
18047;DHT22;9148;51.454;13.862;2022-10-23T12:09:27;24.80;70.80
18047;DHT22;9148;51.454;13.862;2022-10-23T12:14:44;24.90;69.80
18047;DHT22;9148;51.454;13.862;2022-10-23T12:19:53;24.70;69.30
18047;DHT22;9148;51.454;13.862;2022-10-23T12:22:24;24.60;68.50
18047;DHT22;9148;51.454;13.862;2022-10-23T12:25:02;24.40;70.10
18047;DHT22;9148;51.454;13.862;2022-10-23T12:27:44;24.30;68.90
18047;DHT22;9148;51.454;13.862;2022-10-23T12:33:24;24.00;70.50
18047;DHT22;9148;51.454;13.862;2022-10-23T12:36:21;23.70;71.20
18047;DHT22;9148;51.454;13.862;2022-10-23T12:39:25;23.30;71.40
18047;DHT22;9148;51.454;13.862;2022-10-23T12:41:55;22.90;72.30
18047;DHT22;9148;51.454;13.862;2022-10-23T12:44:21;22.50;73.50
18047;DHT22;9148;51.454;13.862;2022-10-23T12:46:55;22.30;74.30
18047;DHT22;9148;51.454;13.862;2022-10-23T12:49:25;22.10;73.80
18047;DHT22;9148;51.454;13.862;2022-10-23T12:52:00;21.90;75.10
18047;DHT22;9148;51.454;13.862;2022-10-23T12:54:31;21.80;75.80
18047;DHT22;9148;51.454;13.862;2022-10-23T12:56:58;21.70;76.70
18047;DHT22;9148;51.454;13.862;2022-10-23T12:59:37;21.60;77.80
18047;DHT22;9148;51.454;13.862;2022-10-23T13:02:27;21.70;79.00
18047;DHT22;9148;51.454;13.862;2022-10-23T13:04:57;21.70;79.50
18047;DHT22;9148;51.454;13.862;2022-10-23T13:07:26;21.70;78.90
18047;DHT22;9148;51.454;13.862;2022-10-23T13:09:54;21.60;79.40
18047;DHT22;9148;51.454;13.862;2022-10-23T13:12:26;21.30;80.30
18047;DHT22;9148;51.454;13.862;2022-10-23T13:22:43;20.60;85.00
18047;DHT22;9148;51.454;13.862;2022-10-23T13:25:25;20.40;86.30
18047;DHT22;9148;51.454;13.862;2022-10-23T13:28:30;20.30;87.40
18047;DHT22;9148;51.454;13.862;2022-10-23T13:31:06;20.20;88.00
18047;DHT22;9148;51.454;13.862;2022-10-23T13:36:29;20.10;90.00
18047;DHT22;9148;51.454;13.862;2022-10-23T13:41:44;19.80;90.80
18047;DHT22;9148;51.454;13.862;2022-10-23T13:44:12;19.70;91.30
18047;DHT22;9148;51.454;13.862;2022-10-23T13:46:43;19.60;91.40
18047;DHT22;9148;51.454;13.862;2022-10-23T13:49:09;19.50;91.90
18047;DHT22;9148;51.454;13.862;2022-10-23T13:51:43;19.40;92.30
18047;DHT22;9148;51.454;13.862;2022-10-23T13:54:15;19.40;92.70
18047;DHT22;9148;51.454;13.862;2022-10-23T13:56:45;19.30;92.90
18047;DHT22;9148;51.454;13.862;2022-10-23T13:59:12;19.20;93.00
18047;DHT22;9148;51.454;13.862;2022-10-23T14:01:38;19.20;93.40
18047;DHT22;9148;51.454;13.862;2022-10-23T14:04:04;19.10;93.70
18047;DHT22;9148;51.454;13.862;2022-10-23T14:06:31;19.10;93.90
18047;DHT22;9148;51.454;13.862;2022-10-23T14:08:57;19.20;94.20
18047;DHT22;9148;51.454;13.862;2022-10-23T14:11:23;19.00;94.50
18047;DHT22;9148;51.454;13.862;2022-10-23T14:13:49;19.00;94.80
18047;DHT22;9148;51.454;13.862;2022-10-23T14:16:18;18.90;95.40
18047;DHT22;9148;51.454;13.862;2022-10-23T14:18:45;18.90;95.40
18047;DHT22;9148;51.454;13.862;2022-10-23T14:21:13;18.80;95.80
18047;DHT22;9148;51.454;13.862;2022-10-23T14:23:40;18.80;96.20
18047;DHT22;9148;51.454;13.862;2022-10-23T14:26:08;18.70;96.40
18047;DHT22;9148;51.454;13.862;2022-10-23T14:28:36;18.60;96.70
18047;DHT22;9148;51.454;13.862;2022-10-23T14:31:06;18.50;96.90
18047;DHT22;9148;51.454;13.862;2022-10-23T14:33:33;18.50;97.30
18047;DHT22;9148;51.454;13.862;2022-10-23T14:35:59;18.50;97.50
18047;DHT22;9148;51.454;13.862;2022-10-23T14:38:25;18.50;97.70
18047;DHT22;9148;51.454;13.862;2022-10-23T14:40:51;18.50;97.80
18047;DHT22;9148;51.454;13.862;2022-10-23T14:43:17;18.40;97.90
18047;DHT22;9148;51.454;13.862;2022-10-23T14:45:43;18.30;98.00
18047;DHT22;9148;51.454;13.862;2022-10-23T14:48:08;18.30;98.20
18047;DHT22;9148;51.454;13.862;2022-10-23T14:50:36;18.20;97.20
18047;DHT22;9148;51.454;13.862;2022-10-23T14:53:02;18.10;96.70
18047;DHT22;9148;51.454;13.862;2022-10-23T14:55:29;18.10;96.80
18047;DHT22;9148;51.454;13.862;2022-10-23T14:57:55;18.00;97.10
18047;DHT22;9148;51.454;13.862;2022-10-23T15:00:21;18.00;97.30
18047;DHT22;9148;51.454;13.862;2022-10-23T15:02:47;17.90;97.60
18047;DHT22;9148;51.454;13.862;2022-10-23T15:05:13;17.90;98.00
18047;DHT22;9148;51.454;13.862;2022-10-23T15:07:39;17.80;98.30
18047;DHT22;9148;51.454;13.862;2022-10-23T15:10:05;17.80;98.70
18047;DHT22;9148;51.454;13.862;2022-10-23T15:12:33;17.80;99.00
18047;DHT22;9148;51.454;13.862;2022-10-23T15:14:59;17.60;99.50
18047;DHT22;9148;51.454;13.862;2022-10-23T15:17:25;17.60;99.90
18047;DHT22;9148;51.454;13.862;2022-10-23T15:19:51;17.50;99.90
18047;DHT22;9148;51.454;13.862;2022-10-23T15:22:17;17.40;99.90
18047;DHT22;9148;51.454;13.862;2022-10-23T15:24:44;17.30;99.90
18047;DHT22;9148;51.454;13.862;2022-10-23T15:27:10;17.20;99.90
18047;DHT22;9148;51.454;13.862;2022-10-23T15:29:36;17.10;99.90
18047;DHT22;9148;51.454;13.862;2022-10-23T15:32:02;16.90;99.90
18047;DHT22;9148;51.454;13.862;2022-10-23T15:34:30;16.80;99.90
18047;DHT22;9148;51.454;13.862;2022-10-23T15:36:57;16.70;99.90
18047;DHT22;9148;51.454;13.862;2022-10-23T15:39:25;16.70;99.90
18047;DHT22;9148;51.454;13.862;2022-10-23T15:41:54;16.60;99.90
18047;DHT22;9148;51.454;13.862;2022-10-23T15:44:22;16.50;99.90
18047;DHT22;9148;51.454;13.862;2022-10-23T15:46:49;16.40;99.90
18047;DHT22;9148;51.454;13.862;2022-10-23T15:49:16;16.40;99.90
18047;DHT22;9148;51.454;13.862;2022-10-23T15:51:42;16.30;99.90
18047;DHT22;9148;51.454;13.862;2022-10-23T15:54:11;16.30;99.90
18047;DHT22;9148;51.454;13.862;2022-10-23T15:56:44;16.20;99.90
18047;DHT22;9148;51.454;13.862;2022-10-23T15:59:14;16.20;99.90
18047;DHT22;9148;51.454;13.862;2022-10-23T16:01:40;16.10;99.90
18047;DHT22;9148;51.454;13.862;2022-10-23T16:04:06;16.10;99.90
18047;DHT22;9148;51.454;13.862;2022-10-23T16:06:32;16.10;99.90
18047;DHT22;9148;51.454;13.862;2022-10-23T16:08:58;16.00;99.90
18047;DHT22;9148;51.454;13.862;2022-10-23T16:11:26;16.00;99.90
18047;DHT22;9148;51.454;13.862;2022-10-23T16:13:54;15.90;99.90
18047;DHT22;9148;51.454;13.862;2022-10-23T16:16:20;15.90;99.90
18047;DHT22;9148;51.454;13.862;2022-10-23T16:18:46;15.90;99.90
18047;DHT22;9148;51.454;13.862;2022-10-23T16:21:33;15.90;99.90
18047;DHT22;9148;51.454;13.862;2022-10-23T16:24:02;15.80;99.90
18047;DHT22;9148;51.454;13.862;2022-10-23T16:26:29;15.70;99.90
18047;DHT22;9148;51.454;13.862;2022-10-23T16:28:58;15.70;99.90
18047;DHT22;9148;51.454;13.862;2022-10-23T16:31:26;15.70;99.90
18047;DHT22;9148;51.454;13.862;2022-10-23T16:33:53;15.70;99.90
18047;DHT22;9148;51.454;13.862;2022-10-23T16:36:19;15.60;99.90
18047;DHT22;9148;51.454;13.862;2022-10-23T16:38:45;15.70;99.90
18047;DHT22;9148;51.454;13.862;2022-10-23T16:41:10;15.60;99.90
18047;DHT22;9148;51.454;13.862;2022-10-23T16:43:36;15.60;99.90
18047;DHT22;9148;51.454;13.862;2022-10-23T16:46:17;15.60;99.90
18047;DHT22;9148;51.454;13.862;2022-10-23T16:48:44;15.50;99.90
18047;DHT22;9148;51.454;13.862;2022-10-23T16:51:16;15.50;99.90
18047;DHT22;9148;51.454;13.862;2022-10-23T16:53:44;15.50;99.90
18047;DHT22;9148;51.454;13.862;2022-10-23T16:56:11;15.50;99.90
18047;DHT22;9148;51.454;13.862;2022-10-23T16:58:39;15.50;99.90
18047;DHT22;9148;51.454;13.862;2022-10-23T17:01:11;15.50;99.90
18047;DHT22;9148;51.454;13.862;2022-10-23T17:03:46;15.50;99.90
18047;DHT22;9148;51.454;13.862;2022-10-23T17:06:16;15.50;99.90
18047;DHT22;9148;51.454;13.862;2022-10-23T17:08:44;15.60;99.90
18047;DHT22;9148;51.454;13.862;2022-10-23T17:11:19;15.60;99.90
18047;DHT22;9148;51.454;13.862;2022-10-23T17:14:15;15.60;99.90
18047;DHT22;9148;51.454;13.862;2022-10-23T17:16:51;15.60;99.90
18047;DHT22;9148;51.454;13.862;2022-10-23T17:19:20;15.60;99.90
18047;DHT22;9148;51.454;13.862;2022-10-23T17:21:48;15.60;99.90
18047;DHT22;9148;51.454;13.862;2022-10-23T17:24:13;15.70;99.90
18047;DHT22;9148;51.454;13.862;2022-10-23T17:26:40;15.70;99.90
18047;DHT22;9148;51.454;13.862;2022-10-23T17:29:07;15.70;99.90
18047;DHT22;9148;51.454;13.862;2022-10-23T17:31:38;15.70;99.90